Cashmere, WA (98815)

6:13 PM PDT on September 04, 2015 (GMT -0700)
MesoWest | | Change Station
CLOSE
Current Station
Personal Weather Station
Location: Cashmere, WA
Elevation: 898 ft
Nearby Weather Stations

Elev 898 ft 47.53 °N, 120.48 °W | Updated 58 minutes ago

Partly Cloudy
Partly Cloudy
69.0 °F
Feels Like 69.0 °F
N
3.0
Wind Variable Wind from East
Gusts 8.0 mph

Today
High -- | Low -- °F
--% Chance of Precip.
Yesterday
High -- | Low -- °F
Precip. -- in
6:24 AM 7:36 PM
Waning Gibbous, 54% visible
Pressure 29.84 in
Visibility 10.0 miles
Clouds Few 12000 ft
Dew Point 38.0 °F
Humidity 32%
Rainfall in
Snow Depth Not available.
UV 1 out of 12
Pollen 3.90 out of 12
Air Quality Not available.
Flu Activity Not available.
METAR KEAT 050055Z AUTO 30008KT 10SM FEW120 21/00 A2985 RMK AO2 SLP104 T02060000
Pressure 29.84 in
Visibility 10.0 miles
Clouds Few 12000 ft
Dew Point 38.0 °F
Humidity 32%
Rainfall in
Snow Depth Not available.
UV 1 out of 12
Pollen 3.90 out of 12
Air Quality Not available.
Flu Activity Not available.
METAR KEAT 050055Z AUTO 30008KT 10SM FEW120 21/00 A2985 RMK AO2 SLP104 T02060000

10-Day Weather Forecast

×

Almanac

Astronomy

Sep. 04, 2015 Rise Set
Actual Time
Civil Twilight
Nautical Twilight
Astronomical Twilight
Moon
Length of Visible Light
Length of Day
Tomorrow will be .
, % of the Moon is Illuminated

Today's Extremes

State Highs State Lows

Community

WunderPhotos

Upload Photos

1,852,372 photos uploaded!

WunderBlogs® & News

Nearby

Air Quality

  Air Quality AQ Index Pollutant
Not available.

Snow Depth

Station Depth Elevation

Earthquake Activity

City Distance Mag. Time & Date
Minimum magnitude displayed is 2.5.

Coastal Water Temperatures

Place Temperature

Stations

Nearby Weather Stations

Station Location Temp. Windchill Dew Point Humidity Wind Precip. Elev Updated Type